sensor_id;sensor_type;location;lat;lon;timestamp;P1;durP1;ratioP1;P2;durP2;ratioP2
79330;SDS011;68797;49.782;19.054;2023-07-13T00:00:54;5.15;;;3.10;;
79330;SDS011;68797;49.782;19.054;2023-07-13T00:03:46;7.88;;;3.45;;
79330;SDS011;68797;49.782;19.054;2023-07-13T00:06:25;5.38;;;3.33;;
79330;SDS011;68797;49.782;19.054;2023-07-13T00:09:50;6.65;;;3.63;;
79330;SDS011;68797;49.782;19.054;2023-07-13T00:12:37;5.63;;;3.72;;
79330;SDS011;68797;49.782;19.054;2023-07-13T00:15:16;5.57;;;3.63;;
79330;SDS011;68797;49.782;19.054;2023-07-13T00:18:03;5.55;;;3.50;;
79330;SDS011;68797;49.782;19.054;2023-07-13T00:20:46;6.70;;;3.10;;
79330;SDS011;68797;49.782;19.054;2023-07-13T00:23:23;5.22;;;3.67;;
79330;SDS011;68797;49.782;19.054;2023-07-13T00:26:01;6.50;;;3.15;;
79330;SDS011;68797;49.782;19.054;2023-07-13T00:28:39;4.90;;;2.72;;
79330;SDS011;68797;49.782;19.054;2023-07-13T00:31:26;4.88;;;3.08;;
79330;SDS011;68797;49.782;19.054;2023-07-13T00:34:03;6.90;;;3.67;;
79330;SDS011;68797;49.782;19.054;2023-07-13T00:39:18;6.78;;;2.90;;
79330;SDS011;68797;49.782;19.054;2023-07-13T00:42:02;9.98;;;3.42;;
79330;SDS011;68797;49.782;19.054;2023-07-13T00:45:00;4.50;;;3.30;;
79330;SDS011;68797;49.782;19.054;2023-07-13T00:47:55;5.05;;;2.95;;
79330;SDS011;68797;49.782;19.054;2023-07-13T00:50:28;5.85;;;3.22;;
79330;SDS011;68797;49.782;19.054;2023-07-13T00:53:31;4.80;;;3.55;;
79330;SDS011;68797;49.782;19.054;2023-07-13T00:56:09;3.80;;;2.83;;
79330;SDS011;68797;49.782;19.054;2023-07-13T00:59:06;5.43;;;3.05;;
79330;SDS011;68797;49.782;19.054;2023-07-13T01:02:03;4.47;;;2.50;;
79330;SDS011;68797;49.782;19.054;2023-07-13T01:04:35;4.05;;;2.50;;
79330;SDS011;68797;49.782;19.054;2023-07-13T01:07:11;4.97;;;2.97;;
79330;SDS011;68797;49.782;19.054;2023-07-13T01:09:45;3.17;;;2.50;;
79330;SDS011;68797;49.782;19.054;2023-07-13T01:12:44;3.28;;;2.50;;
79330;SDS011;68797;49.782;19.054;2023-07-13T01:15:44;4.60;;;2.90;;
79330;SDS011;68797;49.782;19.054;2023-07-13T01:18:24;4.03;;;3.33;;
79330;SDS011;68797;49.782;19.054;2023-07-13T01:21:03;5.07;;;2.85;;
79330;SDS011;68797;49.782;19.054;2023-07-13T01:23:47;4.50;;;3.10;;
79330;SDS011;68797;49.782;19.054;2023-07-13T01:26:22;6.30;;;3.45;;
79330;SDS011;68797;49.782;19.054;2023-07-13T01:29:07;5.72;;;3.45;;
79330;SDS011;68797;49.782;19.054;2023-07-13T01:32:11;6.28;;;3.38;;
79330;SDS011;68797;49.782;19.054;2023-07-13T01:34:54;6.65;;;3.70;;
79330;SDS011;68797;49.782;19.054;2023-07-13T01:37:42;5.07;;;3.30;;
79330;SDS011;68797;49.782;19.054;2023-07-13T01:40:12;5.57;;;3.60;;
79330;SDS011;68797;49.782;19.054;2023-07-13T01:42:58;6.03;;;3.50;;
79330;SDS011;68797;49.782;19.054;2023-07-13T01:45:57;5.22;;;4.15;;
79330;SDS011;68797;49.782;19.054;2023-07-13T01:48:43;5.93;;;3.55;;
79330;SDS011;68797;49.782;19.054;2023-07-13T01:51:37;4.53;;;3.42;;
79330;SDS011;68797;49.782;19.054;2023-07-13T01:54:12;5.63;;;3.72;;
79330;SDS011;68797;49.782;19.054;2023-07-13T01:56:45;7.68;;;3.70;;
79330;SDS011;68797;49.782;19.054;2023-07-13T01:59:30;7.13;;;3.45;;
79330;SDS011;68797;49.782;19.054;2023-07-13T02:01:59;6.75;;;3.85;;
79330;SDS011;68797;49.782;19.054;2023-07-13T02:05:10;5.25;;;3.75;;
79330;SDS011;68797;49.782;19.054;2023-07-13T02:07:46;5.07;;;3.58;;
79330;SDS011;68797;49.782;19.054;2023-07-13T02:10:32;8.43;;;3.60;;
79330;SDS011;68797;49.782;19.054;2023-07-13T02:13:08;5.00;;;3.40;;
79330;SDS011;68797;49.782;19.054;2023-07-13T02:15:44;7.00;;;3.78;;
79330;SDS011;68797;49.782;19.054;2023-07-13T02:18:33;7.60;;;4.45;;
79330;SDS011;68797;49.782;19.054;2023-07-13T02:21:09;5.80;;;3.97;;
79330;SDS011;68797;49.782;19.054;2023-07-13T02:24:11;7.65;;;4.38;;
79330;SDS011;68797;49.782;19.054;2023-07-13T02:26:49;7.85;;;4.13;;
79330;SDS011;68797;49.782;19.054;2023-07-13T02:33:07;7.35;;;4.05;;
79330;SDS011;68797;49.782;19.054;2023-07-13T02:35:38;7.13;;;4.43;;
79330;SDS011;68797;49.782;19.054;2023-07-13T02:38:49;6.60;;;4.03;;
79330;SDS011;68797;49.782;19.054;2023-07-13T02:41:30;5.43;;;4.20;;
79330;SDS011;68797;49.782;19.054;2023-07-13T02:44:14;5.55;;;3.60;;
79330;SDS011;68797;49.782;19.054;2023-07-13T02:46:49;6.47;;;4.28;;
79330;SDS011;68797;49.782;19.054;2023-07-13T02:49:23;5.03;;;3.90;;
79330;SDS011;68797;49.782;19.054;2023-07-13T02:52:03;7.40;;;3.83;;
79330;SDS011;68797;49.782;19.054;2023-07-13T02:54:46;6.35;;;4.15;;
79330;SDS011;68797;49.782;19.054;2023-07-13T02:57:16;4.90;;;3.65;;
79330;SDS011;68797;49.782;19.054;2023-07-13T03:00:12;7.40;;;4.10;;
79330;SDS011;68797;49.782;19.054;2023-07-13T03:02:46;6.40;;;3.60;;
79330;SDS011;68797;49.782;19.054;2023-07-13T03:05:37;6.40;;;4.00;;
79330;SDS011;68797;49.782;19.054;2023-07-13T03:08:26;5.60;;;3.67;;
79330;SDS011;68797;49.782;19.054;2023-07-13T03:11:07;5.40;;;3.65;;
79330;SDS011;68797;49.782;19.054;2023-07-13T03:13:56;5.50;;;3.78;;
79330;SDS011;68797;49.782;19.054;2023-07-13T03:16:39;4.75;;;3.58;;
79330;SDS011;68797;49.782;19.054;2023-07-13T03:19:33;7.45;;;4.63;;
79330;SDS011;68797;49.782;19.054;2023-07-13T03:25:01;6.93;;;4.03;;
79330;SDS011;68797;49.782;19.054;2023-07-13T03:27:32;7.20;;;3.88;;
79330;SDS011;68797;49.782;19.054;2023-07-13T03:30:09;8.10;;;4.07;;
79330;SDS011;68797;49.782;19.054;2023-07-13T03:32:50;6.05;;;3.88;;
79330;SDS011;68797;49.782;19.054;2023-07-13T03:38:00;7.40;;;3.85;;
79330;SDS011;68797;49.782;19.054;2023-07-13T03:40:35;5.53;;;3.20;;
79330;SDS011;68797;49.782;19.054;2023-07-13T03:43:15;5.78;;;3.38;;
79330;SDS011;68797;49.782;19.054;2023-07-13T03:45:55;4.63;;;3.30;;
79330;SDS011;68797;49.782;19.054;2023-07-13T03:49:18;5.78;;;3.75;;
79330;SDS011;68797;49.782;19.054;2023-07-13T03:52:03;6.82;;;4.20;;
79330;SDS011;68797;49.782;19.054;2023-07-13T03:54:57;6.47;;;3.63;;
79330;SDS011;68797;49.782;19.054;2023-07-13T03:57:53;6.20;;;3.47;;
79330;SDS011;68797;49.782;19.054;2023-07-13T04:00:28;5.65;;;3.72;;
79330;SDS011;68797;49.782;19.054;2023-07-13T04:03:15;7.28;;;3.95;;
79330;SDS011;68797;49.782;19.054;2023-07-13T04:06:13;7.90;;;4.60;;
79330;SDS011;68797;49.782;19.054;2023-07-13T04:12:12;6.72;;;4.03;;
79330;SDS011;68797;49.782;19.054;2023-07-13T04:17:22;7.35;;;4.75;;
79330;SDS011;68797;49.782;19.054;2023-07-13T04:20:01;13.13;;;6.75;;
79330;SDS011;68797;49.782;19.054;2023-07-13T04:22:54;15.23;;;8.82;;
79330;SDS011;68797;49.782;19.054;2023-07-13T04:25:28;17.55;;;10.05;;
79330;SDS011;68797;49.782;19.054;2023-07-13T04:28:08;18.15;;;10.65;;
79330;SDS011;68797;49.782;19.054;2023-07-13T04:30:45;14.25;;;8.60;;
79330;SDS011;68797;49.782;19.054;2023-07-13T04:33:15;19.98;;;10.63;;
79330;SDS011;68797;49.782;19.054;2023-07-13T04:36:09;17.33;;;8.98;;
79330;SDS011;68797;49.782;19.054;2023-07-13T04:38:48;14.27;;;8.55;;
79330;SDS011;68797;49.782;19.054;2023-07-13T04:41:34;15.52;;;8.75;;
79330;SDS011;68797;49.782;19.054;2023-07-13T04:44:15;13.73;;;8.70;;
79330;SDS011;68797;49.782;19.054;2023-07-13T04:46:53;14.25;;;7.65;;
79330;SDS011;68797;49.782;19.054;2023-07-13T04:49:26;12.93;;;8.80;;
79330;SDS011;68797;49.782;19.054;2023-07-13T04:52:01;13.30;;;7.13;;
79330;SDS011;68797;49.782;19.054;2023-07-13T04:54:38;12.15;;;6.93;;
79330;SDS011;68797;49.782;19.054;2023-07-13T04:57:12;8.90;;;6.00;;
79330;SDS011;68797;49.782;19.054;2023-07-13T04:59:54;10.57;;;6.13;;
79330;SDS011;68797;49.782;19.054;2023-07-13T05:04:59;8.50;;;5.70;;
79330;SDS011;68797;49.782;19.054;2023-07-13T05:07:38;12.52;;;5.60;;
79330;SDS011;68797;49.782;19.054;2023-07-13T05:10:14;7.80;;;5.03;;
79330;SDS011;68797;49.782;19.054;2023-07-13T05:12:44;10.93;;;4.70;;
79330;SDS011;68797;49.782;19.054;2023-07-13T05:15:22;7.65;;;4.80;;
79330;SDS011;68797;49.782;19.054;2023-07-13T05:18:01;6.93;;;4.60;;
79330;SDS011;68797;49.782;19.054;2023-07-13T05:20:36;8.70;;;4.78;;
79330;SDS011;68797;49.782;19.054;2023-07-13T05:23:10;6.22;;;4.70;;
79330;SDS011;68797;49.782;19.054;2023-07-13T05:25:58;6.55;;;4.65;;
79330;SDS011;68797;49.782;19.054;2023-07-13T05:28:47;5.90;;;4.10;;
79330;SDS011;68797;49.782;19.054;2023-07-13T05:31:19;7.18;;;4.10;;
79330;SDS011;68797;49.782;19.054;2023-07-13T05:34:11;6.25;;;4.22;;
79330;SDS011;68797;49.782;19.054;2023-07-13T05:37:01;9.77;;;4.20;;
79330;SDS011;68797;49.782;19.054;2023-07-13T05:39:48;7.95;;;4.25;;
79330;SDS011;68797;49.782;19.054;2023-07-13T05:42:35;6.85;;;4.10;;
79330;SDS011;68797;49.782;19.054;2023-07-13T05:45:15;5.13;;;3.65;;
79330;SDS011;68797;49.782;19.054;2023-07-13T05:47:57;6.13;;;3.92;;
79330;SDS011;68797;49.782;19.054;2023-07-13T05:50:41;5.93;;;4.32;;
79330;SDS011;68797;49.782;19.054;2023-07-13T05:53:22;6.15;;;3.85;;
79330;SDS011;68797;49.782;19.054;2023-07-13T05:56:29;6.20;;;4.13;;
79330;SDS011;68797;49.782;19.054;2023-07-13T05:59:12;6.72;;;3.88;;
79330;SDS011;68797;49.782;19.054;2023-07-13T06:01:43;9.20;;;4.47;;
79330;SDS011;68797;49.782;19.054;2023-07-13T06:04:29;7.03;;;4.00;;
79330;SDS011;68797;49.782;19.054;2023-07-13T06:07:06;5.35;;;3.88;;
79330;SDS011;68797;49.782;19.054;2023-07-13T06:09:55;7.22;;;4.57;;
79330;SDS011;68797;49.782;19.054;2023-07-13T06:12:23;6.60;;;4.07;;
79330;SDS011;68797;49.782;19.054;2023-07-13T06:15:13;8.05;;;4.18;;
79330;SDS011;68797;49.782;19.054;2023-07-13T06:17:54;4.93;;;3.60;;
79330;SDS011;68797;49.782;19.054;2023-07-13T06:20:36;7.93;;;4.43;;
79330;SDS011;68797;49.782;19.054;2023-07-13T06:23:12;8.48;;;4.18;;
79330;SDS011;68797;49.782;19.054;2023-07-13T06:25:49;7.53;;;4.03;;
79330;SDS011;68797;49.782;19.054;2023-07-13T06:28:23;4.43;;;3.92;;
79330;SDS011;68797;49.782;19.054;2023-07-13T06:31:20;8.52;;;3.72;;
79330;SDS011;68797;49.782;19.054;2023-07-13T06:33:59;7.45;;;3.78;;
79330;SDS011;68797;49.782;19.054;2023-07-13T06:36:39;5.03;;;3.60;;
79330;SDS011;68797;49.782;19.054;2023-07-13T06:39:18;7.18;;;4.40;;
79330;SDS011;68797;49.782;19.054;2023-07-13T06:41:51;7.57;;;4.18;;
79330;SDS011;68797;49.782;19.054;2023-07-13T06:44:27;11.60;;;4.20;;
79330;SDS011;68797;49.782;19.054;2023-07-13T06:47:02;6.82;;;3.97;;
79330;SDS011;68797;49.782;19.054;2023-07-13T06:49:37;6.95;;;3.97;;
79330;SDS011;68797;49.782;19.054;2023-07-13T06:52:07;5.95;;;4.15;;
79330;SDS011;68797;49.782;19.054;2023-07-13T06:55:13;6.93;;;3.92;;
79330;SDS011;68797;49.782;19.054;2023-07-13T06:58:01;6.18;;;3.78;;
79330;SDS011;68797;49.782;19.054;2023-07-13T07:00:35;5.55;;;4.13;;
79330;SDS011;68797;49.782;19.054;2023-07-13T07:03:48;5.75;;;4.22;;
79330;SDS011;68797;49.782;19.054;2023-07-13T07:06:20;8.02;;;4.10;;
79330;SDS011;68797;49.782;19.054;2023-07-13T07:08:53;5.43;;;4.25;;
79330;SDS011;68797;49.782;19.054;2023-07-13T07:11:34;6.60;;;4.07;;
79330;SDS011;68797;49.782;19.054;2023-07-13T07:14:12;7.93;;;4.32;;
79330;SDS011;68797;49.782;19.054;2023-07-13T07:16:57;6.00;;;4.15;;
79330;SDS011;68797;49.782;19.054;2023-07-13T07:19:29;7.40;;;3.97;;
79330;SDS011;68797;49.782;19.054;2023-07-13T07:22:09;5.82;;;4.07;;
79330;SDS011;68797;49.782;19.054;2023-07-13T07:24:50;6.07;;;4.07;;
79330;SDS011;68797;49.782;19.054;2023-07-13T07:27:34;7.40;;;4.18;;
79330;SDS011;68797;49.782;19.054;2023-07-13T07:30:21;7.35;;;4.05;;
79330;SDS011;68797;49.782;19.054;2023-07-13T07:33:00;9.60;;;4.60;;
79330;SDS011;68797;49.782;19.054;2023-07-13T07:36:06;6.05;;;4.22;;
79330;SDS011;68797;49.782;19.054;2023-07-13T07:38:44;9.10;;;5.38;;
79330;SDS011;68797;49.782;19.054;2023-07-13T07:41:28;9.75;;;5.18;;
79330;SDS011;68797;49.782;19.054;2023-07-13T07:44:05;8.45;;;5.03;;
79330;SDS011;68797;49.782;19.054;2023-07-13T07:46:49;6.05;;;4.07;;
79330;SDS011;68797;49.782;19.054;2023-07-13T07:49:25;11.68;;;4.95;;
79330;SDS011;68797;49.782;19.054;2023-07-13T07:52:07;12.90;;;5.22;;
79330;SDS011;68797;49.782;19.054;2023-07-13T07:54:43;9.85;;;5.07;;
79330;SDS011;68797;49.782;19.054;2023-07-13T07:57:44;7.25;;;4.55;;
79330;SDS011;68797;49.782;19.054;2023-07-13T08:00:29;9.18;;;5.40;;
79330;SDS011;68797;49.782;19.054;2023-07-13T08:03:09;5.43;;;4.32;;
79330;SDS011;68797;49.782;19.054;2023-07-13T08:06:03;8.50;;;4.82;;
79330;SDS011;68797;49.782;19.054;2023-07-13T08:08:40;8.95;;;4.78;;
79330;SDS011;68797;49.782;19.054;2023-07-13T08:11:16;7.45;;;4.72;;
79330;SDS011;68797;49.782;19.054;2023-07-13T08:14:00;6.82;;;5.00;;
79330;SDS011;68797;49.782;19.054;2023-07-13T08:16:39;8.75;;;4.95;;
79330;SDS011;68797;49.782;19.054;2023-07-13T08:21:45;8.32;;;5.22;;
79330;SDS011;68797;49.782;19.054;2023-07-13T08:24:28;8.93;;;4.70;;
79330;SDS011;68797;49.782;19.054;2023-07-13T08:27:32;8.50;;;4.75;;
79330;SDS011;68797;49.782;19.054;2023-07-13T08:30:05;8.35;;;5.18;;
79330;SDS011;68797;49.782;19.054;2023-07-13T08:32:55;7.80;;;5.53;;
79330;SDS011;68797;49.782;19.054;2023-07-13T08:35:29;6.70;;;5.15;;
79330;SDS011;68797;49.782;19.054;2023-07-13T08:38:26;7.82;;;4.55;;
79330;SDS011;68797;49.782;19.054;2023-07-13T08:41:16;6.88;;;4.97;;
79330;SDS011;68797;49.782;19.054;2023-07-13T08:43:59;8.13;;;5.28;;
79330;SDS011;68797;49.782;19.054;2023-07-13T08:46:53;8.23;;;5.13;;
79330;SDS011;68797;49.782;19.054;2023-07-13T08:49:33;7.60;;;5.00;;
79330;SDS011;68797;49.782;19.054;2023-07-13T08:52:18;8.95;;;5.28;;
79330;SDS011;68797;49.782;19.054;2023-07-13T08:55:41;9.95;;;4.90;;
79330;SDS011;68797;49.782;19.054;2023-07-13T08:58:28;9.43;;;4.85;;
79330;SDS011;68797;49.782;19.054;2023-07-13T09:04:19;12.15;;;5.03;;
79330;SDS011;68797;49.782;19.054;2023-07-13T09:10:37;9.88;;;5.80;;
79330;SDS011;68797;49.782;19.054;2023-07-13T09:17:41;9.10;;;5.40;;
79330;SDS011;68797;49.782;19.054;2023-07-13T09:20:24;11.60;;;5.53;;
79330;SDS011;68797;49.782;19.054;2023-07-13T09:23:21;7.63;;;4.95;;
79330;SDS011;68797;49.782;19.054;2023-07-13T09:29:23;6.68;;;4.75;;
79330;SDS011;68797;49.782;19.054;2023-07-13T09:32:07;14.30;;;4.78;;
79330;SDS011;68797;49.782;19.054;2023-07-13T09:34:40;6.05;;;4.13;;
79330;SDS011;68797;49.782;19.054;2023-07-13T09:37:31;14.82;;;3.88;;
79330;SDS011;68797;49.782;19.054;2023-07-13T09:40:02;9.05;;;3.67;;
79330;SDS011;68797;49.782;19.054;2023-07-13T09:42:37;6.35;;;3.42;;
79330;SDS011;68797;49.782;19.054;2023-07-13T09:45:11;8.68;;;3.25;;
79330;SDS011;68797;49.782;19.054;2023-07-13T09:48:10;4.65;;;2.90;;
79330;SDS011;68797;49.782;19.054;2023-07-13T09:50:47;5.05;;;2.88;;
79330;SDS011;68797;49.782;19.054;2023-07-13T09:53:18;5.55;;;3.20;;
79330;SDS011;68797;49.782;19.054;2023-07-13T09:56:05;5.85;;;2.72;;
79330;SDS011;68797;49.782;19.054;2023-07-13T09:59:08;8.18;;;3.85;;
79330;SDS011;68797;49.782;19.054;2023-07-13T10:01:52;5.45;;;3.10;;
79330;SDS011;68797;49.782;19.054;2023-07-13T10:04:30;6.10;;;3.60;;
79330;SDS011;68797;49.782;19.054;2023-07-13T10:07:08;9.35;;;3.33;;
79330;SDS011;68797;49.782;19.054;2023-07-13T10:09:44;10.05;;;3.95;;
79330;SDS011;68797;49.782;19.054;2023-07-13T10:13:03;10.40;;;3.65;;
79330;SDS011;68797;49.782;19.054;2023-07-13T10:15:57;7.25;;;3.45;;
79330;SDS011;68797;49.782;19.054;2023-07-13T10:19:07;6.68;;;3.58;;
79330;SDS011;68797;49.782;19.054;2023-07-13T10:22:19;8.55;;;3.85;;
79330;SDS011;68797;49.782;19.054;2023-07-13T10:25:13;4.75;;;2.72;;
79330;SDS011;68797;49.782;19.054;2023-07-13T10:31:08;5.97;;;3.13;;
79330;SDS011;68797;49.782;19.054;2023-07-13T10:33:51;6.38;;;3.75;;
79330;SDS011;68797;49.782;19.054;2023-07-13T10:36:52;6.78;;;4.32;;
79330;SDS011;68797;49.782;19.054;2023-07-13T10:39:32;8.52;;;5.70;;
79330;SDS011;68797;49.782;19.054;2023-07-13T10:42:08;7.55;;;5.88;;
79330;SDS011;68797;49.782;19.054;2023-07-13T10:44:49;6.75;;;5.90;;
79330;SDS011;68797;49.782;19.054;2023-07-13T10:47:19;8.10;;;5.82;;
79330;SDS011;68797;49.782;19.054;2023-07-13T10:49:56;9.27;;;6.35;;
79330;SDS011;68797;49.782;19.054;2023-07-13T10:53:00;10.27;;;7.40;;
79330;SDS011;68797;49.782;19.054;2023-07-13T10:55:58;11.13;;;7.15;;
79330;SDS011;68797;49.782;19.054;2023-07-13T10:59:01;8.43;;;6.78;;
79330;SDS011;68797;49.782;19.054;2023-07-13T11:08:16;8.90;;;5.63;;
79330;SDS011;68797;49.782;19.054;2023-07-13T11:10:59;6.13;;;5.00;;
79330;SDS011;68797;49.782;19.054;2023-07-13T11:16:47;6.25;;;4.30;;
79330;SDS011;68797;49.782;19.054;2023-07-13T11:19:30;6.55;;;3.97;;
79330;SDS011;68797;49.782;19.054;2023-07-13T11:22:13;4.57;;;3.78;;
79330;SDS011;68797;49.782;19.054;2023-07-13T11:27:38;5.72;;;3.85;;
79330;SDS011;68797;49.782;19.054;2023-07-13T11:31:02;6.57;;;3.25;;
79330;SDS011;68797;49.782;19.054;2023-07-13T11:34:06;4.60;;;3.50;;
79330;SDS011;68797;49.782;19.054;2023-07-13T11:36:51;4.43;;;3.58;;
79330;SDS011;68797;49.782;19.054;2023-07-13T11:39:37;3.88;;;3.05;;
79330;SDS011;68797;49.782;19.054;2023-07-13T11:42:23;4.70;;;3.35;;
79330;SDS011;68797;49.782;19.054;2023-07-13T11:45:14;4.22;;;3.17;;
79330;SDS011;68797;49.782;19.054;2023-07-13T11:47:59;4.18;;;3.00;;
79330;SDS011;68797;49.782;19.054;2023-07-13T11:50:36;5.22;;;3.50;;
79330;SDS011;68797;49.782;19.054;2023-07-13T11:53:08;4.75;;;3.85;;
79330;SDS011;68797;49.782;19.054;2023-07-13T11:55:46;6.78;;;3.50;;
79330;SDS011;68797;49.782;19.054;2023-07-13T11:58:23;4.97;;;3.70;;
79330;SDS011;68797;49.782;19.054;2023-07-13T12:03:38;4.53;;;3.33;;
79330;SDS011;68797;49.782;19.054;2023-07-13T12:09:13;4.65;;;3.67;;
79330;SDS011;68797;49.782;19.054;2023-07-13T12:12:17;5.00;;;3.38;;
79330;SDS011;68797;49.782;19.054;2023-07-13T12:14:51;4.50;;;3.30;;
79330;SDS011;68797;49.782;19.054;2023-07-13T12:17:31;4.63;;;3.30;;
79330;SDS011;68797;49.782;19.054;2023-07-13T12:20:17;5.20;;;3.60;;
79330;SDS011;68797;49.782;19.054;2023-07-13T12:22:59;3.80;;;2.83;;
79330;SDS011;68797;49.782;19.054;2023-07-13T12:25:51;3.72;;;2.65;;
79330;SDS011;68797;49.782;19.054;2023-07-13T12:28:48;5.75;;;2.70;;
79330;SDS011;68797;49.782;19.054;2023-07-13T12:34:50;3.08;;;2.45;;
79330;SDS011;68797;49.782;19.054;2023-07-13T12:39:58;4.85;;;2.47;;
79330;SDS011;68797;49.782;19.054;2023-07-13T12:42:33;3.72;;;2.40;;
79330;SDS011;68797;49.782;19.054;2023-07-13T12:45:25;4.18;;;2.30;;
79330;SDS011;68797;49.782;19.054;2023-07-13T12:48:05;3.03;;;2.10;;
79330;SDS011;68797;49.782;19.054;2023-07-13T12:50:46;3.60;;;2.30;;
79330;SDS011;68797;49.782;19.054;2023-07-13T12:53:22;3.15;;;2.63;;
79330;SDS011;68797;49.782;19.054;2023-07-13T12:59:10;2.95;;;2.10;;
79330;SDS011;68797;49.782;19.054;2023-07-13T13:01:52;3.78;;;2.53;;
79330;SDS011;68797;49.782;19.054;2023-07-13T13:04:38;3.42;;;2.28;;
79330;SDS011;68797;49.782;19.054;2023-07-13T13:07:15;3.65;;;2.00;;
79330;SDS011;68797;49.782;19.054;2023-07-13T13:09:46;2.95;;;1.90;;
79330;SDS011;68797;49.782;19.054;2023-07-13T13:12:18;2.97;;;2.03;;
79330;SDS011;68797;49.782;19.054;2023-07-13T13:15:01;4.57;;;2.38;;
79330;SDS011;68797;49.782;19.054;2023-07-13T13:17:45;3.45;;;2.10;;
79330;SDS011;68797;49.782;19.054;2023-07-13T13:20:23;3.55;;;2.53;;
79330;SDS011;68797;49.782;19.054;2023-07-13T13:23:16;4.20;;;3.08;;
79330;SDS011;68797;49.782;19.054;2023-07-13T13:25:55;3.60;;;2.70;;
79330;SDS011;68797;49.782;19.054;2023-07-13T13:28:30;4.03;;;2.80;;
79330;SDS011;68797;49.782;19.054;2023-07-13T13:31:03;4.80;;;3.03;;
79330;SDS011;68797;49.782;19.054;2023-07-13T13:33:43;5.15;;;2.78;;
79330;SDS011;68797;49.782;19.054;2023-07-13T13:36:37;4.75;;;3.60;;
79330;SDS011;68797;49.782;19.054;2023-07-13T13:39:15;3.58;;;3.13;;
79330;SDS011;68797;49.782;19.054;2023-07-13T13:42:20;5.63;;;3.10;;
79330;SDS011;68797;49.782;19.054;2023-07-13T13:44:55;6.05;;;3.40;;
79330;SDS011;68797;49.782;19.054;2023-07-13T13:47:31;3.67;;;2.97;;
79330;SDS011;68797;49.782;19.054;2023-07-13T13:50:11;3.92;;;2.78;;
79330;SDS011;68797;49.782;19.054;2023-07-13T13:52:43;4.15;;;3.00;;
79330;SDS011;68797;49.782;19.054;2023-07-13T13:55:22;4.18;;;3.10;;
79330;SDS011;68797;49.782;19.054;2023-07-13T14:00:39;3.85;;;3.00;;
79330;SDS011;68797;49.782;19.054;2023-07-13T14:03:33;5.30;;;2.90;;
79330;SDS011;68797;49.782;19.054;2023-07-13T14:06:27;4.03;;;2.50;;
79330;SDS011;68797;49.782;19.054;2023-07-13T14:08:59;4.50;;;3.17;;
79330;SDS011;68797;49.782;19.054;2023-07-13T14:11:39;4.70;;;3.08;;
79330;SDS011;68797;49.782;19.054;2023-07-13T14:14:19;3.30;;;2.60;;
79330;SDS011;68797;49.782;19.054;2023-07-13T14:17:02;4.15;;;3.38;;
79330;SDS011;68797;49.782;19.054;2023-07-13T14:19:56;4.32;;;3.47;;
79330;SDS011;68797;49.782;19.054;2023-07-13T14:22:34;6.07;;;3.08;;
79330;SDS011;68797;49.782;19.054;2023-07-13T14:25:05;3.47;;;3.13;;
79330;SDS011;68797;49.782;19.054;2023-07-13T14:27:49;4.32;;;3.00;;
79330;SDS011;68797;49.782;19.054;2023-07-13T14:30:29;5.10;;;3.33;;
79330;SDS011;68797;49.782;19.054;2023-07-13T14:33:37;3.45;;;2.90;;
79330;SDS011;68797;49.782;19.054;2023-07-13T14:36:23;3.80;;;2.95;;
79330;SDS011;68797;49.782;19.054;2023-07-13T14:39:24;4.13;;;2.83;;
79330;SDS011;68797;49.782;19.054;2023-07-13T14:41:58;4.88;;;3.20;;
79330;SDS011;68797;49.782;19.054;2023-07-13T14:44:31;4.35;;;2.53;;
79330;SDS011;68797;49.782;19.054;2023-07-13T14:47:21;4.18;;;2.90;;
79330;SDS011;68797;49.782;19.054;2023-07-13T14:49:59;3.50;;;2.58;;
79330;SDS011;68797;49.782;19.054;2023-07-13T14:52:29;3.78;;;2.65;;
79330;SDS011;68797;49.782;19.054;2023-07-13T14:55:18;4.10;;;2.53;;
79330;SDS011;68797;49.782;19.054;2023-07-13T14:58:03;3.95;;;2.80;;
79330;SDS011;68797;49.782;19.054;2023-07-13T15:00:38;4.75;;;2.90;;
79330;SDS011;68797;49.782;19.054;2023-07-13T15:03:23;4.47;;;2.72;;
79330;SDS011;68797;49.782;19.054;2023-07-13T15:06:03;5.18;;;3.17;;
79330;SDS011;68797;49.782;19.054;2023-07-13T15:08:52;4.10;;;2.83;;
79330;SDS011;68797;49.782;19.054;2023-07-13T15:14:31;3.22;;;2.67;;
79330;SDS011;68797;49.782;19.054;2023-07-13T15:17:27;5.57;;;2.90;;
79330;SDS011;68797;49.782;19.054;2023-07-13T15:20:29;6.47;;;3.33;;
79330;SDS011;68797;49.782;19.054;2023-07-13T15:23:15;4.55;;;2.60;;
79330;SDS011;68797;49.782;19.054;2023-07-13T15:25:52;5.70;;;2.80;;
79330;SDS011;68797;49.782;19.054;2023-07-13T15:28:26;3.97;;;2.78;;
79330;SDS011;68797;49.782;19.054;2023-07-13T15:31:05;4.78;;;3.10;;
79330;SDS011;68797;49.782;19.054;2023-07-13T15:34:25;5.50;;;3.35;;
79330;SDS011;68797;49.782;19.054;2023-07-13T15:37:11;4.75;;;3.17;;
79330;SDS011;68797;49.782;19.054;2023-07-13T15:40:12;5.13;;;3.20;;
79330;SDS011;68797;49.782;19.054;2023-07-13T15:42:44;5.32;;;3.50;;
79330;SDS011;68797;49.782;19.054;2023-07-13T15:45:23;5.03;;;3.42;;
79330;SDS011;68797;49.782;19.054;2023-07-13T15:48:09;7.07;;;3.83;;
79330;SDS011;68797;49.782;19.054;2023-07-13T15:51:01;4.47;;;3.40;;
79330;SDS011;68797;49.782;19.054;2023-07-13T15:53:34;7.20;;;3.55;;
79330;SDS011;68797;49.782;19.054;2023-07-13T15:56:20;4.90;;;3.78;;
79330;SDS011;68797;49.782;19.054;2023-07-13T15:59:04;4.18;;;3.60;;
79330;SDS011;68797;49.782;19.054;2023-07-13T16:02:16;4.60;;;3.72;;
79330;SDS011;68797;49.782;19.054;2023-07-13T16:04:52;4.50;;;3.47;;
79330;SDS011;68797;49.782;19.054;2023-07-13T16:07:53;5.10;;;3.90;;
79330;SDS011;68797;49.782;19.054;2023-07-13T16:10:32;4.72;;;3.80;;
79330;SDS011;68797;49.782;19.054;2023-07-13T16:13:19;5.07;;;4.57;;
79330;SDS011;68797;49.782;19.054;2023-07-13T16:15:59;7.97;;;4.60;;
79330;SDS011;68797;49.782;19.054;2023-07-13T16:18:40;4.47;;;4.05;;
79330;SDS011;68797;49.782;19.054;2023-07-13T16:21:32;5.90;;;4.72;;
79330;SDS011;68797;49.782;19.054;2023-07-13T16:24:20;5.93;;;4.63;;
79330;SDS011;68797;49.782;19.054;2023-07-13T16:27:02;4.35;;;3.95;;
79330;SDS011;68797;49.782;19.054;2023-07-13T16:29:56;6.38;;;4.68;;
79330;SDS011;68797;49.782;19.054;2023-07-13T16:32:58;5.03;;;4.50;;
79330;SDS011;68797;49.782;19.054;2023-07-13T16:36:23;6.10;;;4.65;;
79330;SDS011;68797;49.782;19.054;2023-07-13T16:39:37;5.72;;;4.50;;
79330;SDS011;68797;49.782;19.054;2023-07-13T16:45:08;5.18;;;4.32;;
79330;SDS011;68797;49.782;19.054;2023-07-13T16:47:44;7.10;;;4.50;;
79330;SDS011;68797;49.782;19.054;2023-07-13T16:50:19;7.57;;;4.43;;
79330;SDS011;68797;49.782;19.054;2023-07-13T16:52:57;6.15;;;5.15;;
79330;SDS011;68797;49.782;19.054;2023-07-13T16:55:35;5.50;;;4.45;;
79330;SDS011;68797;49.782;19.054;2023-07-13T16:58:09;5.35;;;4.82;;
79330;SDS011;68797;49.782;19.054;2023-07-13T17:00:44;6.65;;;4.72;;
79330;SDS011;68797;49.782;19.054;2023-07-13T17:03:22;6.28;;;4.80;;
79330;SDS011;68797;49.782;19.054;2023-07-13T17:06:23;6.25;;;4.82;;
79330;SDS011;68797;49.782;19.054;2023-07-13T17:09:00;8.48;;;4.43;;
79330;SDS011;68797;49.782;19.054;2023-07-13T17:11:48;5.78;;;5.13;;
79330;SDS011;68797;49.782;19.054;2023-07-13T17:14:43;7.50;;;4.90;;
79330;SDS011;68797;49.782;19.054;2023-07-13T17:17:15;6.68;;;5.10;;
79330;SDS011;68797;49.782;19.054;2023-07-13T17:19:49;5.53;;;4.60;;
79330;SDS011;68797;49.782;19.054;2023-07-13T17:22:29;6.07;;;5.05;;
79330;SDS011;68797;49.782;19.054;2023-07-13T17:24:59;8.90;;;4.68;;
79330;SDS011;68797;49.782;19.054;2023-07-13T17:27:41;5.57;;;4.95;;